Time;durP1;ratioP1;P1;durP2;ratioP2;P2;SDS_P1;SDS_P2;PMS_P1;PMS_P2;Temp;Humidity;BMP_temperature;BMP_pressure;BME280_temperature;BME280_humidity;BME280_pressure;Samples;Min_cycle;Max_cycle;Signal;HPM_P1;HPM_P2
2023/08/08 00:01:19;;;;;;;1.90;1.07;;;13.20;99.90;13.20;100214.00;;;;4985738;28;88663;-66
2023/08/08 00:03:45;;;;;;;0.53;0.40;;;13.20;99.90;13.30;100211.00;;;;4989762;27;87933;-66
2023/08/08 00:06:10;;;;;;;0.57;0.53;;;13.20;99.90;13.20;100215.00;;;;4985156;27;116900;-66
2023/08/08 00:08:36;;;;;;;1.80;1.27;;;13.20;99.90;13.20;100212.00;;;;4986430;27;117242;-67
2023/08/08 00:11:02;;;;;;;1.53;1.00;;;13.20;99.90;13.20;100208.00;;;;4986855;27;110044;-67
2023/08/08 00:13:27;;;;;;;0.67;0.67;;;13.20;99.90;13.20;100207.00;;;;4986945;28;88649;-67
2023/08/08 00:15:53;;;;;;;1.20;0.70;;;13.20;99.90;13.10;100201.00;;;;4983611;27;117901;-67
2023/08/08 00:18:25;;;;;;;0.63;0.50;;;13.10;99.90;13.10;100202.00;;;;4987759;27;116509;-66
2023/08/08 00:20:50;;;;;;;1.53;0.97;;;13.10;99.90;13.10;100211.00;;;;4987257;27;88097;-67
2023/08/08 00:23:16;;;;;;;0.90;0.60;;;13.10;99.90;13.10;100205.00;;;;4985954;27;107942;-67
2023/08/08 00:25:41;;;;;;;2.63;1.00;;;13.70;99.90;13.10;100206.00;;;;4990867;27;106135;-68
2023/08/08 00:28:07;;;;;;;5.43;0.93;;;13.10;99.90;13.10;100208.00;;;;4986145;27;110971;-66
2023/08/08 00:30:33;;;;;;;1.97;0.70;;;13.00;99.90;13.10;100218.00;;;;4984930;27;108790;-66
2023/08/08 00:32:58;;;;;;;2.47;0.93;;;13.10;99.90;13.00;100211.00;;;;4986113;27;109614;-67
2023/08/08 00:35:24;;;;;;;1.17;0.87;;;13.10;99.90;13.00;100213.00;;;;4984852;27;117475;-68
2023/08/08 00:37:50;;;;;;;1.30;0.63;;;13.00;99.90;13.00;100219.00;;;;4967810;28;113220;-67
2023/08/08 00:40:15;;;;;;;1.70;0.60;;;13.00;99.90;13.00;100218.00;;;;4986461;27;107953;-66
2023/08/08 00:42:41;;;;;;;1.93;0.50;;;13.00;99.90;13.00;100223.00;;;;4986928;27;108898;-67
2023/08/08 00:45:08;;;;;;;0.53;0.53;;;13.00;99.90;12.90;100221.00;;;;4986207;27;116712;-66
2023/08/08 00:47:34;;;;;;;0.50;0.50;;;13.00;99.90;12.90;100214.00;;;;4985205;27;108146;-66
2023/08/08 00:50:02;;;;;;;1.33;1.03;;;12.90;99.90;12.90;100215.00;;;;4984357;27;87705;-66
2023/08/08 00:52:28;;;;;;;0.70;0.70;;;12.90;99.90;12.90;100221.00;;;;4989039;27;87746;-67
2023/08/08 00:54:54;;;;;;;0.93;0.67;;;12.90;99.90;12.80;100221.00;;;;4984993;27;87252;-66
2023/08/08 00:57:20;;;;;;;2.40;1.00;;;12.80;99.90;12.80;100216.00;;;;4988972;27;87525;-67
2023/08/08 00:59:45;;;;;;;1.40;1.00;;;12.80;99.90;12.80;100217.00;;;;4989697;27;87888;-67
2023/08/08 01:02:11;;;;;;;2.00;1.10;;;12.10;99.90;12.80;100223.00;;;;4986338;27;107867;-66
2023/08/08 01:04:38;;;;;;;1.73;0.90;;;12.80;99.90;12.80;100216.00;;;;4987914;27;110567;-67
2023/08/08 01:07:36;;;;;;;2.13;0.90;;;12.80;99.90;12.70;100214.00;;;;4984640;27;89498;-66
2023/08/08 01:10:14;;;;;;;1.60;1.17;;;12.70;99.90;12.70;100210.00;;;;4985383;27;87822;-68
2023/08/08 01:12:44;;;;;;;0.77;0.37;;;12.70;99.90;12.60;100205.00;;;;4986189;27;87821;-68
2023/08/08 01:15:11;;;;;;;0.90;0.90;;;12.70;99.90;12.60;100203.00;;;;4981153;27;88258;-67
2023/08/08 01:17:37;;;;;;;1.20;1.07;;;12.60;99.90;12.60;100202.00;;;;4984763;27;119371;-66
2023/08/08 01:20:08;;;;;;;0.87;0.77;;;12.60;99.90;12.50;100202.00;;;;4987281;27;109711;-68
2023/08/08 01:22:45;;;;;;;1.00;0.67;;;12.50;99.90;12.40;100205.00;;;;4978575;27;87600;-67
2023/08/08 01:25:11;;;;;;;2.33;0.77;;;12.50;99.90;12.40;100202.00;;;;4986726;27;88658;-67
2023/08/08 01:27:37;;;;;;;1.20;1.10;;;12.50;99.90;12.40;100194.00;;;;4982015;27;116686;-67
2023/08/08 01:30:03;;;;;;;2.80;0.90;;;12.40;99.90;12.30;100187.00;;;;4984893;27;87719;-69
2023/08/08 01:32:29;;;;;;;2.30;1.07;;;12.30;99.90;12.30;100198.00;;;;4984312;27;87909;-68
2023/08/08 01:34:55;;;;;;;1.27;1.03;;;12.30;99.90;12.20;100188.00;;;;4986276;27;117950;-69
2023/08/08 01:37:36;;;;;;;1.70;0.80;;;12.20;99.90;12.20;100188.00;;;;4988358;27;116013;-68
2023/08/08 01:40:04;;;;;;;3.47;1.10;;;12.20;99.90;12.10;100191.00;;;;4975679;28;88214;-66
2023/08/08 01:42:30;;;;;;;0.83;0.83;;;12.20;99.90;12.10;100193.00;;;;4988845;27;95000;-67
2023/08/08 01:44:56;;;;;;;6.03;1.00;;;12.10;99.90;12.10;100192.00;;;;4987390;27;117196;-68
2023/08/08 01:47:22;;;;;;;2.47;1.40;;;12.10;99.90;12.10;100191.00;;;;4981698;27;114837;-69
2023/08/08 01:49:47;;;;;;;1.60;1.20;;;12.10;99.90;12.10;100197.00;;;;4989463;27;109926;-68
2023/08/08 01:52:13;;;;;;;0.97;0.60;;;12.10;99.90;12.10;100195.00;;;;4984188;27;108598;-66
2023/08/08 01:54:39;;;;;;;0.67;0.50;;;12.10;99.90;12.10;100192.00;;;;4983319;27;87888;-67
2023/08/08 01:57:05;;;;;;;2.37;1.20;;;12.10;99.90;12.10;100199.00;;;;4985074;27;118095;-68
2023/08/08 01:59:30;;;;;;;1.37;1.10;;;12.10;99.90;12.10;100194.00;;;;4986840;27;88083;-67
2023/08/08 02:01:56;;;;;;;5.50;1.20;;;12.10;99.90;12.10;100204.00;;;;4988195;27;109526;-67
2023/08/08 02:04:22;;;;;;;2.93;1.27;;;12.10;99.90;12.10;100198.00;;;;4986466;27;119002;-67
2023/08/08 02:06:47;;;;;;;1.23;1.07;;;12.20;99.90;12.10;100195.00;;;;4987415;27;107639;-67
2023/08/08 02:09:16;;;;;;;3.13;1.10;;;12.20;99.90;12.10;100208.00;;;;4988257;27;109939;-67
2023/08/08 02:11:42;;;;;;;2.83;0.70;;;12.20;99.90;12.10;100204.00;;;;4995171;27;108223;-67
2023/08/08 02:14:10;;;;;;;1.30;0.70;;;13.30;99.90;12.10;100203.00;;;;4990837;28;90220;-66
2023/08/08 02:16:36;;;;;;;0.77;0.77;;;12.10;99.90;12.10;100200.00;;;;4990376;27;116560;-66
2023/08/08 02:19:02;;;;;;;0.93;0.90;;;12.10;99.90;12.10;100201.00;;;;4987803;27;104435;-68
2023/08/08 02:21:27;;;;;;;1.00;0.93;;;12.10;99.90;12.10;100191.00;;;;4987480;27;109389;-68
2023/08/08 02:23:53;;;;;;;2.27;1.13;;;12.10;99.90;12.10;100187.00;;;;4986533;27;117864;-66
2023/08/08 02:26:18;;;;;;;0.90;0.63;;;12.10;99.90;12.10;100191.00;;;;4985784;28;117829;-68
2023/08/08 02:28:44;;;;;;;1.87;1.40;;;12.10;99.90;12.10;100194.00;;;;4986796;27;110262;-66
2023/08/08 02:31:10;;;;;;;1.60;1.17;;;12.10;99.90;12.10;100191.00;;;;4985636;27;107357;-67
2023/08/08 02:33:35;;;;;;;1.67;0.90;;;12.10;99.90;12.00;100185.00;;;;4987588;27;117162;-69
2023/08/08 02:36:01;;;;;;;2.83;0.80;;;12.10;99.90;12.00;100188.00;;;;4989748;27;116911;-67
2023/08/08 02:38:27;;;;;;;1.97;1.23;;;12.00;99.90;12.00;100187.00;;;;4988677;27;87703;-67
2023/08/08 02:40:53;;;;;;;1.27;1.00;;;12.00;99.90;12.00;100194.00;;;;4988660;27;109022;-66
2023/08/08 02:43:18;;;;;;;1.33;0.97;;;12.00;99.90;12.00;100173.00;;;;4987199;27;117084;-68
2023/08/08 02:45:44;;;;;;;1.20;1.10;;;11.90;99.90;12.00;100182.00;;;;4989304;27;102698;-68
2023/08/08 02:48:10;;;;;;;2.50;0.97;;;11.90;99.90;11.90;100182.00;;;;4988837;27;99472;-67
2023/08/08 02:50:35;;;;;;;3.13;1.33;;;11.90;99.90;11.90;100180.00;;;;4987679;27;106904;-67
2023/08/08 02:53:01;;;;;;;1.63;1.13;;;11.90;99.90;11.90;100187.00;;;;4985092;27;116375;-69
2023/08/08 02:55:27;;;;;;;1.70;0.57;;;11.90;99.90;11.90;100190.00;;;;4988447;27;87912;-68
2023/08/08 02:57:52;;;;;;;1.30;1.07;;;11.90;99.90;11.90;100189.00;;;;4986072;27;110090;-67
2023/08/08 03:00:19;;;;;;;1.33;1.23;;;11.90;99.90;11.80;100198.00;;;;4987903;27;88194;-65
2023/08/08 03:02:45;;;;;;;1.10;1.00;;;11.90;99.90;11.80;100187.00;;;;4985510;27;118235;-66
2023/08/08 03:05:10;;;;;;;0.73;0.73;;;11.90;99.90;11.80;100183.00;;;;4986714;27;114988;-67
2023/08/08 03:07:36;;;;;;;2.13;1.30;;;11.80;99.90;11.80;100192.00;;;;4986165;27;110205;-68
2023/08/08 03:10:02;;;;;;;1.53;0.70;;;11.80;99.90;11.80;100186.00;;;;4985477;27;88064;-68
2023/08/08 03:12:28;;;;;;;2.00;1.13;;;11.80;99.90;11.80;100196.00;;;;4989526;27;87951;-68
2023/08/08 03:14:54;;;;;;;1.07;0.97;;;11.80;99.90;11.80;100197.00;;;;4990673;27;117273;-68
2023/08/08 03:17:19;;;;;;;1.03;0.90;;;11.80;99.90;11.80;100193.00;;;;4989101;27;110345;-67
2023/08/08 03:19:45;;;;;;;1.37;1.27;;;11.80;99.90;11.70;100185.00;;;;4989248;27;109316;-69
2023/08/08 03:22:11;;;;;;;1.20;1.10;;;11.70;99.90;11.70;100189.00;;;;4988216;27;116930;-67
2023/08/08 03:24:36;;;;;;;3.47;1.17;;;11.70;99.90;11.70;100188.00;;;;4984420;27;117249;-67
2023/08/08 03:27:02;;;;;;;1.83;1.20;;;11.70;99.90;11.70;100187.00;;;;4987279;27;109594;-68
2023/08/08 03:29:28;;;;;;;1.30;0.93;;;11.70;99.90;11.60;100179.00;;;;4985054;27;99918;-69
2023/08/08 03:31:53;;;;;;;1.83;1.53;;;11.60;99.90;11.60;100181.00;;;;4990189;27;118833;-68
2023/08/08 03:34:19;;;;;;;2.03;0.87;;;11.70;99.90;11.60;100178.00;;;;4987624;27;117175;-66
2023/08/08 03:36:45;;;;;;;1.03;0.80;;;11.60;99.90;11.60;100180.00;;;;4991510;27;108126;-67
2023/08/08 03:39:11;;;;;;;1.63;1.10;;;11.60;99.90;11.60;100181.00;;;;4992558;27;87990;-67
2023/08/08 03:41:37;;;;;;;1.77;0.97;;;11.60;99.90;11.60;100178.00;;;;4987345;27;88959;-66
2023/08/08 03:44:03;;;;;;;3.53;1.00;;;11.60;99.90;11.60;100183.00;;;;4987469;27;88771;-68
2023/08/08 03:46:29;;;;;;;2.20;0.77;;;11.60;99.90;11.60;100176.00;;;;4988381;27;87195;-69
2023/08/08 03:48:55;;;;;;;2.33;1.43;;;11.60;99.90;11.60;100183.00;;;;4985070;27;89223;-66
2023/08/08 03:51:20;;;;;;;0.93;0.80;;;11.80;99.90;11.60;100177.00;;;;4984665;27;96781;-67
2023/08/08 03:53:46;;;;;;;1.63;0.90;;;11.60;99.90;11.60;100187.00;;;;4990257;27;116907;-68
2023/08/08 03:56:12;;;;;;;0.87;0.70;;;11.60;99.90;11.60;100186.00;;;;4987570;27;110875;-66
2023/08/08 03:58:38;;;;;;;1.33;1.23;;;11.60;99.90;11.60;100176.00;;;;4985653;27;108864;-67
2023/08/08 04:01:04;;;;;;;1.20;1.10;;;11.60;99.90;11.60;100174.00;;;;4983092;27;110635;-65
2023/08/08 04:03:29;;;;;;;1.00;1.00;;;11.60;99.90;11.60;100169.00;;;;4985949;27;116094;-66
2023/08/08 04:05:55;;;;;;;0.63;0.60;;;11.60;99.90;11.60;100179.00;;;;4990517;27;93169;-67
2023/08/08 04:08:21;;;;;;;1.80;1.70;;;11.60;99.90;11.70;100181.00;;;;4988332;27;109282;-68
2023/08/08 04:10:47;;;;;;;1.47;0.83;;;11.60;99.90;11.70;100174.00;;;;4991257;27;116408;-68
2023/08/08 04:13:13;;;;;;;0.83;0.73;;;11.70;99.90;11.80;100173.00;;;;4987344;27;106172;-67
2023/08/08 04:15:38;;;;;;;1.30;0.93;;;11.70;99.90;11.80;100178.00;;;;4985988;27;97978;-67
2023/08/08 04:18:06;;;;;;;2.10;1.00;;;11.80;99.90;11.80;100184.00;;;;4986534;27;108133;-67
2023/08/08 04:20:33;;;;;;;0.60;0.60;;;11.80;99.90;11.80;100180.00;;;;4989490;27;89156;-67
2023/08/08 04:22:59;;;;;;;3.43;1.33;;;11.90;99.90;11.90;100172.00;;;;4986616;27;88861;-67
2023/08/08 04:25:24;;;;;;;1.87;1.27;;;11.80;99.90;11.90;100183.00;;;;4987533;27;110235;-68
2023/08/08 04:27:50;;;;;;;3.17;1.10;;;11.90;99.90;12.00;100181.00;;;;4986128;27;96098;-69
2023/08/08 04:30:16;;;;;;;1.73;1.10;;;12.00;99.90;12.10;100185.00;;;;4984477;27;87867;-69
2023/08/08 04:32:41;;;;;;;1.13;1.07;;;12.00;99.90;12.10;100185.00;;;;4984915;27;117504;-69
2023/08/08 04:35:10;;;;;;;2.50;0.80;;;12.10;99.90;12.20;100191.00;;;;4985446;27;86959;-68
2023/08/08 04:37:36;;;;;;;0.90;0.70;;;12.20;99.90;12.20;100190.00;;;;4984721;27;89467;-66
2023/08/08 04:40:02;;;;;;;4.83;1.13;;;12.20;99.90;12.30;100185.00;;;;4986685;27;117927;-67
2023/08/08 04:42:28;;;;;;;1.17;0.93;;;12.30;99.90;12.40;100186.00;;;;4983644;27;88996;-68
2023/08/08 04:44:53;;;;;;;5.87;1.33;;;12.40;99.90;12.40;100191.00;;;;4988802;27;108564;-68
2023/08/08 04:47:19;;;;;;;0.40;0.40;;;12.40;99.90;12.50;100187.00;;;;4985605;27;108473;-68
2023/08/08 04:49:44;;;;;;;0.60;0.60;;;12.50;99.90;12.60;100187.00;;;;4999074;27;118162;-68
2023/08/08 04:52:10;;;;;;;1.50;1.03;;;12.50;99.90;12.70;100193.00;;;;4981755;27;116945;-66
2023/08/08 04:54:36;;;;;;;0.50;0.50;;;12.60;99.90;12.80;100189.00;;;;4990320;27;111757;-67
2023/08/08 04:57:02;;;;;;;1.37;1.27;;;12.70;99.90;12.90;100192.00;;;;4989798;27;87793;-68
2023/08/08 04:59:27;;;;;;;2.13;1.30;;;12.80;99.90;13.00;100192.00;;;;4988808;27;87659;-68
2023/08/08 05:01:53;;;;;;;2.40;0.97;;;12.90;99.90;13.10;100195.00;;;;4987426;27;116890;-68
2023/08/08 05:04:19;;;;;;;2.07;0.63;;;13.00;99.90;13.20;100193.00;;;;4984487;27;109525;-67
2023/08/08 05:06:46;;;;;;;1.00;0.83;;;13.10;99.90;13.20;100184.00;;;;4984679;27;108867;-67
2023/08/08 05:09:11;;;;;;;0.60;0.47;;;13.20;99.90;13.30;100181.00;;;;4985538;27;88339;-67
2023/08/08 05:11:37;;;;;;;1.07;0.97;;;13.30;99.90;13.40;100184.00;;;;4985352;27;117100;-67
2023/08/08 05:14:03;;;;;;;1.80;1.07;;;13.40;99.90;13.50;100195.00;;;;4987809;27;110490;-68
2023/08/08 05:16:28;;;;;;;1.57;1.13;;;13.50;99.90;13.60;100186.00;;;;4987535;27;87976;-68
2023/08/08 05:18:54;;;;;;;1.30;1.20;;;13.60;99.90;13.70;100180.00;;;;4981277;27;117123;-67
2023/08/08 05:21:21;;;;;;;0.93;0.60;;;13.60;99.90;13.70;100194.00;;;;4983490;27;117502;-67
2023/08/08 05:23:46;;;;;;;1.43;0.87;;;13.60;99.90;13.80;100183.00;;;;4982189;27;111646;-68
2023/08/08 05:26:14;;;;;;;0.93;0.77;;;13.70;99.90;13.90;100180.00;;;;4996754;27;107359;-67
2023/08/08 05:28:39;;;;;;;1.40;0.93;;;13.80;99.90;14.00;100179.00;;;;4985029;27;107893;-66
2023/08/08 05:31:05;;;;;;;0.63;0.63;;;14.00;99.90;14.20;100179.00;;;;4982246;27;109389;-66
2023/08/08 05:33:31;;;;;;;1.17;0.60;;;14.00;99.90;14.30;100190.00;;;;4981000;27;108854;-67
2023/08/08 05:35:56;;;;;;;0.50;0.50;;;14.20;99.90;14.50;100184.00;;;;4985631;27;109738;-67
2023/08/08 05:38:22;;;;;;;2.17;0.77;;;14.40;99.90;14.70;100189.00;;;;4982320;27;117726;-66
2023/08/08 05:40:48;;;;;;;0.40;0.40;;;14.50;99.90;14.80;100187.00;;;;4980697;27;116617;-67
2023/08/08 05:43:18;;;;;;;1.30;1.23;;;14.70;99.90;14.90;100185.00;;;;4980508;27;87728;-68
2023/08/08 05:45:44;;;;;;;1.02;0.93;;;14.80;99.90;14.90;100183.00;;;;4978989;27;87718;-68
2023/08/08 05:48:13;;;;;;;0.80;0.80;;;14.90;99.90;14.90;100197.00;;;;4991368;27;87677;-69
2023/08/08 05:50:39;;;;;;;0.67;0.50;;;14.90;99.90;14.90;100195.00;;;;4983567;27;88241;-67
2023/08/08 05:53:06;;;;;;;0.70;0.70;;;14.80;99.90;14.80;100190.00;;;;4986291;27;102552;-67
2023/08/08 05:55:40;;;;;;;2.85;0.85;;;14.80;99.90;14.80;100196.00;;;;4986289;27;88902;-67
2023/08/08 05:58:06;;;;;;;1.43;0.87;;;14.80;99.90;14.80;100197.00;;;;4989605;27;109012;-66
2023/08/08 06:00:40;;;;;;;0.50;0.50;;;14.70;99.90;14.90;100195.00;;;;4986730;27;88885;-66
2023/08/08 06:03:05;;;;;;;0.50;0.50;;;14.80;99.90;15.00;100198.00;;;;4984608;27;91968;-66
2023/08/08 06:05:32;;;;;;;1.77;0.95;;;14.90;99.90;15.10;100199.00;;;;4987880;27;88036;-66
2023/08/08 06:07:57;;;;;;;1.23;0.95;;;15.00;99.90;15.20;100201.00;;;;4985153;27;117821;-68
2023/08/08 06:10:25;;;;;;;1.40;0.80;;;15.10;99.90;15.30;100197.00;;;;4981586;27;117411;-69
2023/08/08 06:12:50;;;;;;;3.90;0.60;;;15.10;99.90;15.30;100200.00;;;;4988696;27;87116;-67
2023/08/08 06:15:16;;;;;;;0.65;0.65;;;15.10;99.90;15.30;100203.00;;;;4985172;27;109023;-67
2023/08/08 06:17:42;;;;;;;0.77;0.75;;;15.20;99.90;15.40;100204.00;;;;4986575;27;118095;-66
2023/08/08 06:20:09;;;;;;;0.75;0.75;;;15.30;99.90;15.40;100202.00;;;;4985498;27;112043;-67
2023/08/08 06:22:35;;;;;;;0.60;0.60;;;15.30;99.90;15.40;100197.00;;;;4987852;27;88088;-70
2023/08/08 06:25:00;;;;;;;1.90;1.50;;;15.30;99.90;15.40;100196.00;;;;4985010;27;99896;-68
2023/08/08 06:27:26;;;;;;;1.10;0.82;;;15.30;99.90;15.50;100193.00;;;;4983842;27;118535;-71
2023/08/08 06:29:52;;;;;;;2.67;0.70;;;15.40;99.90;15.50;100199.00;;;;4986668;27;88941;-67
2023/08/08 06:32:17;;;;;;;0.70;0.70;;;15.40;99.90;15.60;100198.00;;;;4984273;27;88843;-69
2023/08/08 06:34:43;;;;;;;0.90;0.90;;;15.50;99.90;15.60;100202.00;;;;4990404;27;109013;-68
2023/08/08 06:37:09;;;;;;;2.65;0.68;;;15.50;99.90;15.60;100201.00;;;;4985194;27;114219;-68
2023/08/08 06:39:37;;;;;;;0.95;0.80;;;15.50;99.90;15.70;100207.00;;;;4986512;27;88448;-68
2023/08/08 06:42:03;;;;;;;0.88;0.52;;;15.60;99.90;15.70;100193.00;;;;4985921;27;87907;-68
2023/08/08 06:44:32;;;;;;;0.77;0.70;;;15.60;99.90;15.60;100193.00;;;;4983237;27;98826;-68
2023/08/08 06:46:58;;;;;;;1.00;0.65;;;15.60;99.90;15.60;100208.00;;;;4984137;28;116453;-67
2023/08/08 06:49:24;;;;;;;0.52;0.52;;;15.50;99.90;15.60;100200.00;;;;4988046;27;117552;-68
2023/08/08 06:51:49;;;;;;;2.60;0.73;;;15.50;99.90;15.60;100204.00;;;;4984594;28;110534;-69
2023/08/08 06:54:15;;;;;;;0.50;0.50;;;15.50;99.90;15.60;100199.00;;;;4982732;27;108920;-66
2023/08/08 06:56:41;;;;;;;0.70;0.68;;;15.50;99.90;15.60;100193.00;;;;4987805;27;117243;-68
2023/08/08 06:59:07;;;;;;;0.88;0.60;;;15.50;99.90;15.50;100197.00;;;;4987670;27;87922;-68
2023/08/08 07:01:33;;;;;;;1.17;0.80;;;15.10;99.90;15.50;100203.00;;;;4984854;27;109327;-66
2023/08/08 07:03:59;;;;;;;0.77;0.75;;;15.40;99.90;15.50;100209.00;;;;4987264;27;87999;-69
2023/08/08 07:06:25;;;;;;;0.57;0.57;;;15.40;99.90;15.50;100193.00;;;;4988043;27;89156;-69
2023/08/08 07:08:51;;;;;;;0.98;0.70;;;15.40;99.90;15.50;100201.00;;;;4985349;27;88803;-68
2023/08/08 07:11:16;;;;;;;0.52;0.52;;;15.40;99.90;15.50;100197.00;;;;4988184;27;110411;-67
2023/08/08 07:13:42;;;;;;;0.85;0.50;;;15.40;99.90;15.50;100202.00;;;;4985851;27;108387;-67
2023/08/08 07:16:08;;;;;;;1.23;0.75;;;15.40;99.90;15.50;100196.00;;;;4981858;27;118569;-68
2023/08/08 07:18:34;;;;;;;0.95;0.80;;;15.40;99.90;15.50;100194.00;;;;4987102;27;88966;-69
2023/08/08 07:21:00;;;;;;;2.65;0.82;;;15.40;99.90;15.50;100193.00;;;;4979302;27;111456;-68
2023/08/08 07:23:26;;;;;;;0.60;0.60;;;15.40;99.90;15.50;100202.00;;;;4985314;27;87927;-69
2023/08/08 07:25:51;;;;;;;0.95;0.68;;;15.40;99.90;15.60;100197.00;;;;4982688;27;116886;-70
2023/08/08 07:28:17;;;;;;;1.10;1.00;;;15.50;99.90;15.60;100193.00;;;;4984768;27;88125;-68
2023/08/08 07:30:43;;;;;;;2.25;0.70;;;15.50;99.90;15.60;100190.00;;;;4982410;27;88071;-69
2023/08/08 07:33:09;;;;;;;0.65;0.45;;;15.50;99.90;15.60;100194.00;;;;4980647;27;108110;-69
2023/08/08 07:35:34;;;;;;;0.93;0.73;;;15.50;99.90;15.60;100207.00;;;;4981369;27;117779;-69
2023/08/08 07:38:00;;;;;;;1.92;0.80;;;15.50;99.90;15.60;100206.00;;;;4983361;27;117203;-67
2023/08/08 07:40:26;;;;;;;0.60;0.60;;;15.50;99.90;15.60;100208.00;;;;4984938;27;108338;-67
2023/08/08 07:42:52;;;;;;;0.60;0.60;;;15.50;99.90;15.60;100198.00;;;;4980806;27;108193;-67
2023/08/08 07:45:18;;;;;;;0.60;0.47;;;15.50;99.90;15.70;100191.00;;;;4982866;27;88049;-67
2023/08/08 07:47:44;;;;;;;0.80;0.75;;;15.50;99.90;15.70;100198.00;;;;4982152;27;88289;-66
2023/08/08 07:50:10;;;;;;;0.70;0.70;;;15.60;99.90;15.70;100204.00;;;;4983091;27;87177;-66
2023/08/08 07:52:36;;;;;;;1.23;1.02;;;15.60;99.90;15.70;100199.00;;;;4986504;27;89195;-67
2023/08/08 07:55:04;;;;;;;0.68;0.68;;;15.60;99.90;15.70;100202.00;;;;4985860;27;89519;-67
2023/08/08 07:57:35;;;;;;;1.95;0.77;;;15.60;99.90;15.70;100198.00;;;;4982145;27;90587;-68
2023/08/08 08:00:11;;;;;;;0.75;0.75;;;15.60;99.90;15.70;100204.00;;;;4986579;27;87934;-66
2023/08/08 08:02:41;;;;;;;1.95;1.02;;;15.60;99.90;15.80;100207.00;;;;4989955;27;87930;-69
2023/08/08 08:05:07;;;;;;;1.75;0.55;;;15.70;99.90;15.80;100200.00;;;;4981983;27;88109;-67
2023/08/08 08:07:34;;;;;;;2.83;1.08;;;15.70;99.90;15.80;100197.00;;;;4982812;27;90182;-67
2023/08/08 08:10:04;;;;;;;4.55;1.08;;;15.70;99.90;15.90;100207.00;;;;4983843;27;88342;-67
2023/08/08 08:12:31;;;;;;;1.10;0.70;;;15.80;99.90;15.90;100184.00;;;;4984201;27;87969;-66
2023/08/08 08:14:57;;;;;;;0.65;0.52;;;15.80;99.90;15.90;100192.00;;;;4968688;27;116405;-69
2023/08/08 08:17:23;;;;;;;1.60;0.95;;;15.80;99.90;15.90;100189.00;;;;4985437;27;105550;-68
2023/08/08 08:19:51;;;;;;;0.60;0.60;;;15.80;99.90;15.90;100181.00;;;;4984723;27;88146;-67
2023/08/08 08:22:17;;;;;;;0.82;0.63;;;15.80;99.90;16.00;100192.00;;;;4982982;27;88919;-69
2023/08/08 08:24:43;;;;;;;0.73;0.40;;;15.80;99.90;16.00;100192.00;;;;4981415;27;88597;-66
2023/08/08 08:27:08;;;;;;;0.60;0.60;;;15.90;99.90;16.00;100198.00;;;;4983581;27;117466;-67
2023/08/08 08:29:34;;;;;;;0.40;0.40;;;16.00;99.90;16.10;100202.00;;;;4978329;28;111336;-68
2023/08/08 08:32:00;;;;;;;6.03;1.48;;;16.00;99.90;16.20;100193.00;;;;4980812;27;99816;-67
2023/08/08 08:34:25;;;;;;;0.60;0.60;;;16.10;99.90;16.30;100193.00;;;;4983088;27;117871;-67
2023/08/08 08:36:51;;;;;;;1.67;0.77;;;16.20;99.90;16.40;100186.00;;;;4979616;27;116898;-67
2023/08/08 08:39:17;;;;;;;0.60;0.60;;;16.30;99.90;16.60;100203.00;;;;4980121;27;87362;-68
2023/08/08 08:41:51;;;;;;;1.77;0.93;;;16.40;99.90;16.60;100196.00;;;;4982642;27;109680;-67
2023/08/08 08:44:17;;;;;;;0.90;0.88;;;16.50;99.90;16.70;100192.00;;;;4986286;28;109645;-68
2023/08/08 08:46:48;;;;;;;4.63;0.90;;;16.50;99.90;16.70;100168.00;;;;4982605;27;88816;-69
2023/08/08 08:49:14;;;;;;;0.80;0.80;;;16.60;99.90;16.70;100175.00;;;;4984326;27;88940;-69
2023/08/08 08:51:40;;;;;;;4.03;0.50;;;16.60;99.90;16.80;100174.00;;;;4983487;28;108030;-68
2023/08/08 08:54:06;;;;;;;3.97;1.00;;;16.60;99.90;16.80;100176.00;;;;4985125;27;117829;-66
2023/08/08 08:56:32;;;;;;;0.38;0.38;;;16.70;99.90;16.80;100179.00;;;;4984870;27;116607;-67
2023/08/08 08:58:59;;;;;;;0.55;0.55;;;17.00;99.90;16.90;100180.00;;;;4980333;27;88194;-67
2023/08/08 09:01:25;;;;;;;1.20;0.60;;;16.80;99.90;17.00;100177.00;;;;4983515;27;87966;-66
2023/08/08 09:03:51;;;;;;;3.03;0.73;;;16.90;99.90;17.20;100184.00;;;;4979899;27;116966;-67
2023/08/08 09:06:19;;;;;;;0.52;0.52;;;17.00;99.90;17.20;100183.00;;;;4981976;27;87832;-69
2023/08/08 09:08:45;;;;;;;1.08;0.75;;;17.10;99.90;17.30;100188.00;;;;4982240;27;88136;-68
2023/08/08 09:11:10;;;;;;;0.93;0.82;;;17.20;99.90;17.40;100192.00;;;;4983125;27;88768;-67
2023/08/08 09:13:38;;;;;;;0.88;0.80;;;17.30;99.90;17.50;100184.00;;;;4983374;27;117662;-69
2023/08/08 09:16:06;;;;;;;2.20;0.50;;;17.30;99.90;17.60;100186.00;;;;4986121;27;87731;-67
2023/08/08 09:18:33;;;;;;;4.88;1.35;;;17.40;99.90;17.60;100181.00;;;;4989801;27;87911;-67
2023/08/08 09:20:58;;;;;;;1.85;0.90;;;17.50;99.90;17.70;100188.00;;;;4989467;27;87909;-68
2023/08/08 09:23:24;;;;;;;1.08;0.77;;;17.50;99.90;17.70;100150.00;;;;4987443;27;87958;-67
2023/08/08 09:25:50;;;;;;;0.75;0.75;;;17.60;99.90;17.80;100180.00;;;;4986704;27;117763;-68
2023/08/08 09:28:16;;;;;;;0.82;0.70;;;17.70;99.80;17.80;100188.00;;;;4985579;27;87084;-68
2023/08/08 09:30:43;;;;;;;0.93;0.57;;;18.30;99.90;18.00;100177.00;;;;4988397;27;99244;-67
2023/08/08 09:33:09;;;;;;;1.35;0.93;;;17.80;99.80;18.20;100183.00;;;;4988190;27;88247;-68
2023/08/08 09:35:38;;;;;;;1.65;1.05;;;17.90;99.90;18.50;100183.00;;;;4984171;27;98052;-67
2023/08/08 09:38:04;;;;;;;3.80;0.82;;;18.20;99.30;18.60;100185.00;;;;4985869;27;88329;-67
2023/08/08 09:40:30;;;;;;;2.08;1.38;;;18.20;98.20;18.60;100187.00;;;;4989894;28;108960;-67
2023/08/08 09:42:58;;;;;;;0.93;0.90;;;18.50;98.30;18.60;100186.00;;;;4985353;27;89495;-67
2023/08/08 09:45:24;;;;;;;3.40;1.20;;;18.50;98.40;18.60;100201.00;;;;4986219;27;87884;-68
2023/08/08 09:47:53;;;;;;;1.17;0.70;;;18.40;98.40;18.50;100185.00;;;;4990062;27;87969;-67
2023/08/08 09:50:19;;;;;;;1.65;0.80;;;18.40;97.80;18.40;100185.00;;;;4982522;27;102310;-67
2023/08/08 09:52:47;;;;;;;0.80;0.80;;;18.30;97.70;18.20;100199.00;;;;4989151;27;88583;-66
2023/08/08 09:55:14;;;;;;;0.75;0.60;;;18.20;98.20;18.10;100190.00;;;;4982767;27;87797;-67
2023/08/08 09:57:41;;;;;;;0.82;0.57;;;18.00;98.00;18.00;100193.00;;;;4986286;27;92175;-66
2023/08/08 10:00:11;;;;;;;0.40;0.40;;;17.90;97.90;17.90;100192.00;;;;4986103;27;88838;-67
2023/08/08 10:02:37;;;;;;;0.50;0.50;;;17.80;98.10;17.80;100191.00;;;;4987876;27;87899;-67
2023/08/08 10:05:06;;;;;;;0.50;0.50;;;17.70;98.20;17.60;100176.00;;;;4984498;27;117266;-67
2023/08/08 10:07:32;;;;;;;1.60;1.00;;;17.60;98.30;17.60;100194.00;;;;4987194;27;87857;-66
2023/08/08 10:09:59;;;;;;;1.65;0.82;;;17.50;98.90;17.50;100195.00;;;;4987053;27;107668;-67
2023/08/08 10:12:26;;;;;;;0.50;0.50;;;17.50;98.90;17.40;100180.00;;;;4983341;27;117971;-68
2023/08/08 10:14:52;;;;;;;1.00;0.75;;;17.40;99.20;17.40;100197.00;;;;4984265;27;99025;-68
2023/08/08 10:17:18;;;;;;;0.60;0.60;;;17.30;99.50;17.30;100182.00;;;;4984665;28;110634;-68
2023/08/08 10:19:54;;;;;;;0.90;0.73;;;17.30;99.50;17.30;100185.00;;;;4985383;27;109424;-67
2023/08/08 10:22:23;;;;;;;3.78;0.65;;;17.20;99.80;17.20;100185.00;;;;4986199;27;87853;-67
2023/08/08 10:24:53;;;;;;;0.75;0.75;;;17.10;99.90;17.20;100174.00;;;;4986780;27;89177;-69
2023/08/08 10:27:35;;;;;;;0.70;0.55;;;17.10;99.90;17.10;100176.00;;;;4988030;27;88268;-67
2023/08/08 10:30:09;;;;;;;1.17;0.82;;;17.10;99.90;17.10;100183.00;;;;4989423;27;87752;-69
2023/08/08 10:32:48;;;;;;;1.23;0.85;;;17.10;99.90;17.10;100177.00;;;;4987953;27;88984;-67
2023/08/08 10:35:14;;;;;;;0.65;0.65;;;17.00;99.90;17.10;100171.00;;;;4984290;27;88288;-68
2023/08/08 10:37:51;;;;;;;0.65;0.50;;;17.00;99.90;17.10;100179.00;;;;4965990;28;90608;-67
2023/08/08 10:40:18;;;;;;;0.98;0.75;;;17.00;99.90;17.10;100172.00;;;;4985283;27;100374;-68